Airfield :







YOU CAN JOIN US ON...

 
LOGIN :

Register | Disclaimer

   EN    FR    IT 

 









Legend :    VFR   Marginal VFR   IFR   Intensive IFR   Very Intensive IFR
Visi :
Ceiling :
>= 8 km
>= 3000ft
5 to 8 km
1000 to 3000 ft
1500m to 5 km
500 to 1000 ft
800 to 1500m
200 to 500 ft
< 800m
< 200 ft
Symbols :   Thunderstorms  Fog  Heavy snow  Heavy precipitations  Wind > 20 kt






- Airport Elevation : 489 ft


KHUL - Houlton International

CURRENT METAR :
  • 060453Z AUTO 20008KT 10SM BKN024 BKN035 OVC090 05/01 A2979 RMK AO2 SLP091 T00500011 401110011

EXPIRED METARs :
  • 060411Z AUTO 22006KT 10SM BKN026 OVC034 06/01 A2980 RMK AO2 T00560011
  • 060353Z AUTO 21007KT 10SM BKN037 OVC044 06/01 A2980 RMK AO2 SLP096 T00610011

TAF KHUL
Valid from the 06 at 00:00 until the 07 at 00:00 UTC


052342Z 0600/0624 20005KT P6SM VCSH OVC050
FM060200 21007KT 6SM -SHRA OVC030
FM060500 26008KT P6SM VCSH BKN026
FM060800 31009KT P6SM BKN050
FM062000 29014G22KT P6SM VCSH SCT080



MET'MAP, your aeronautical weather chart ! - Copyright ORBIFLY December 2007 - Disclaimer

ORBIFLY MET'MAP TEAM :

Programming & Development : Alexandra Zaïnal
Concept & original design : Baudouin d'Aumeries
Assistance for programming : Marc-Olivier Méhu
Technical & hardware support : Manuel Goepfert

Contact : metmap@orbifly.com




SOURCES & CREDITS :

   NOAA